sensor_id;sensor_type;location;lat;lon;timestamp;P1;durP1;ratioP1;P2;durP2;ratioP2
68214;SDS011;55036;52.138;5.236;2023-12-07T00:02:03;18.33;;;10.98;;
68214;SDS011;55036;52.138;5.236;2023-12-07T00:04:30;24.67;;;11.48;;
68214;SDS011;55036;52.138;5.236;2023-12-07T00:06:57;18.00;;;11.27;;
68214;SDS011;55036;52.138;5.236;2023-12-07T00:09:23;17.30;;;11.38;;
68214;SDS011;55036;52.138;5.236;2023-12-07T00:11:50;15.10;;;10.68;;
68214;SDS011;55036;52.138;5.236;2023-12-07T00:14:17;16.65;;;10.20;;
68214;SDS011;55036;52.138;5.236;2023-12-07T00:16:44;16.85;;;11.35;;
68214;SDS011;55036;52.138;5.236;2023-12-07T00:19:10;21.75;;;11.45;;
68214;SDS011;55036;52.138;5.236;2023-12-07T00:21:37;17.40;;;11.30;;
68214;SDS011;55036;52.138;5.236;2023-12-07T00:24:04;19.17;;;10.15;;
68214;SDS011;55036;52.138;5.236;2023-12-07T00:26:31;21.90;;;10.77;;
68214;SDS011;55036;52.138;5.236;2023-12-07T00:28:57;17.83;;;9.57;;
68214;SDS011;55036;52.138;5.236;2023-12-07T00:31:24;14.52;;;9.52;;
68214;SDS011;55036;52.138;5.236;2023-12-07T00:33:51;16.13;;;9.93;;
68214;SDS011;55036;52.138;5.236;2023-12-07T00:36:17;16.75;;;9.95;;
68214;SDS011;55036;52.138;5.236;2023-12-07T00:38:44;16.25;;;9.68;;
68214;SDS011;55036;52.138;5.236;2023-12-07T00:41:11;14.40;;;8.82;;
68214;SDS011;55036;52.138;5.236;2023-12-07T01:19:39;14.40;;;8.60;;
68214;SDS011;55036;52.138;5.236;2023-12-07T01:22:06;15.05;;;8.23;;
68214;SDS011;55036;52.138;5.236;2023-12-07T01:24:33;22.00;;;9.52;;
68214;SDS011;55036;52.138;5.236;2023-12-07T01:27:00;12.88;;;8.38;;
68214;SDS011;55036;52.138;5.236;2023-12-07T01:29:27;13.13;;;7.40;;
68214;SDS011;55036;52.138;5.236;2023-12-07T01:31:54;15.68;;;8.50;;
68214;SDS011;55036;52.138;5.236;2023-12-07T01:34:20;11.95;;;7.45;;
68214;SDS011;55036;52.138;5.236;2023-12-07T01:36:47;10.50;;;7.55;;
68214;SDS011;55036;52.138;5.236;2023-12-07T01:39:14;12.82;;;7.60;;
68214;SDS011;55036;52.138;5.236;2023-12-07T01:41:42;12.35;;;7.82;;
68214;SDS011;55036;52.138;5.236;2023-12-07T01:44:09;15.23;;;8.40;;
68214;SDS011;55036;52.138;5.236;2023-12-07T01:46:36;12.50;;;7.68;;
68214;SDS011;55036;52.138;5.236;2023-12-07T01:49:03;12.77;;;7.72;;
68214;SDS011;55036;52.138;5.236;2023-12-07T01:51:30;12.02;;;8.13;;
68214;SDS011;55036;52.138;5.236;2023-12-07T01:53:57;11.23;;;7.82;;
68214;SDS011;55036;52.138;5.236;2023-12-07T01:56:24;12.25;;;7.72;;
68214;SDS011;55036;52.138;5.236;2023-12-07T01:58:52;16.02;;;8.27;;
68214;SDS011;55036;52.138;5.236;2023-12-07T02:01:19;13.77;;;7.80;;
68214;SDS011;55036;52.138;5.236;2023-12-07T02:03:46;12.00;;;7.53;;
68214;SDS011;55036;52.138;5.236;2023-12-07T02:06:13;12.38;;;7.93;;
68214;SDS011;55036;52.138;5.236;2023-12-07T02:08:40;12.70;;;9.00;;
68214;SDS011;55036;52.138;5.236;2023-12-07T02:11:08;14.25;;;8.18;;
68214;SDS011;55036;52.138;5.236;2023-12-07T02:13:36;11.68;;;7.70;;
68214;SDS011;55036;52.138;5.236;2023-12-07T02:16:07;13.00;;;7.93;;
68214;SDS011;55036;52.138;5.236;2023-12-07T02:18:40;13.32;;;8.35;;
68214;SDS011;55036;52.138;5.236;2023-12-07T02:21:18;13.48;;;8.18;;
68214;SDS011;55036;52.138;5.236;2023-12-07T02:24:06;13.50;;;7.43;;
68214;SDS011;55036;52.138;5.236;2023-12-07T02:26:36;13.45;;;7.90;;
68214;SDS011;55036;52.138;5.236;2023-12-07T02:29:04;14.50;;;8.25;;
68214;SDS011;55036;52.138;5.236;2023-12-07T02:31:31;15.43;;;7.35;;
68214;SDS011;55036;52.138;5.236;2023-12-07T02:33:58;12.82;;;8.57;;
68214;SDS011;55036;52.138;5.236;2023-12-07T02:36:25;12.90;;;7.78;;
68214;SDS011;55036;52.138;5.236;2023-12-07T02:38:56;13.10;;;8.07;;
68214;SDS011;55036;52.138;5.236;2023-12-07T02:41:24;13.27;;;7.68;;
68214;SDS011;55036;52.138;5.236;2023-12-07T02:43:52;13.20;;;8.20;;
68214;SDS011;55036;52.138;5.236;2023-12-07T02:46:20;12.48;;;7.68;;
68214;SDS011;55036;52.138;5.236;2023-12-07T02:48:47;13.35;;;7.43;;
68214;SDS011;55036;52.138;5.236;2023-12-07T02:51:15;13.88;;;8.73;;
68214;SDS011;55036;52.138;5.236;2023-12-07T02:53:41;12.50;;;7.50;;
68214;SDS011;55036;52.138;5.236;2023-12-07T02:56:08;12.15;;;8.07;;
68214;SDS011;55036;52.138;5.236;2023-12-07T02:58:35;17.05;;;7.60;;
68214;SDS011;55036;52.138;5.236;2023-12-07T03:01:02;16.67;;;8.32;;
68214;SDS011;55036;52.138;5.236;2023-12-07T03:03:28;14.68;;;8.15;;
68214;SDS011;55036;52.138;5.236;2023-12-07T03:05:55;14.07;;;7.90;;
68214;SDS011;55036;52.138;5.236;2023-12-07T03:08:22;14.52;;;7.38;;
68214;SDS011;55036;52.138;5.236;2023-12-07T03:10:49;15.70;;;7.65;;
68214;SDS011;55036;52.138;5.236;2023-12-07T03:13:16;13.38;;;7.57;;
68214;SDS011;55036;52.138;5.236;2023-12-07T03:15:42;13.23;;;7.53;;
68214;SDS011;55036;52.138;5.236;2023-12-07T03:18:09;14.98;;;7.38;;
68214;SDS011;55036;52.138;5.236;2023-12-07T03:20:36;12.02;;;7.60;;
68214;SDS011;55036;52.138;5.236;2023-12-07T03:23:03;13.57;;;7.43;;
68214;SDS011;55036;52.138;5.236;2023-12-07T03:25:30;10.43;;;7.18;;
68214;SDS011;55036;52.138;5.236;2023-12-07T03:27:57;14.02;;;6.90;;
68214;SDS011;55036;52.138;5.236;2023-12-07T03:30:24;12.80;;;7.57;;
68214;SDS011;55036;52.138;5.236;2023-12-07T03:32:50;17.40;;;7.90;;
68214;SDS011;55036;52.138;5.236;2023-12-07T03:35:17;17.20;;;7.93;;
68214;SDS011;55036;52.138;5.236;2023-12-07T03:37:44;13.02;;;7.00;;
68214;SDS011;55036;52.138;5.236;2023-12-07T03:40:11;13.02;;;7.25;;
68214;SDS011;55036;52.138;5.236;2023-12-07T03:42:39;9.77;;;6.97;;
68214;SDS011;55036;52.138;5.236;2023-12-07T03:45:21;10.48;;;7.38;;
68214;SDS011;55036;52.138;5.236;2023-12-07T03:47:48;11.65;;;7.15;;
68214;SDS011;55036;52.138;5.236;2023-12-07T03:50:15;15.02;;;7.18;;
68214;SDS011;55036;52.138;5.236;2023-12-07T03:52:42;9.85;;;6.65;;
68214;SDS011;55036;52.138;5.236;2023-12-07T03:55:08;12.38;;;6.95;;
68214;SDS011;55036;52.138;5.236;2023-12-07T03:57:37;11.20;;;7.00;;
68214;SDS011;55036;52.138;5.236;2023-12-07T04:00:05;10.80;;;6.93;;
68214;SDS011;55036;52.138;5.236;2023-12-07T04:05:02;11.75;;;6.38;;
68214;SDS011;55036;52.138;5.236;2023-12-07T04:07:29;14.95;;;7.75;;
68214;SDS011;55036;52.138;5.236;2023-12-07T04:09:56;13.85;;;7.90;;
68214;SDS011;55036;52.138;5.236;2023-12-07T04:12:23;12.27;;;7.60;;
68214;SDS011;55036;52.138;5.236;2023-12-07T04:14:51;13.93;;;7.85;;
68214;SDS011;55036;52.138;5.236;2023-12-07T04:17:17;14.70;;;7.68;;
68214;SDS011;55036;52.138;5.236;2023-12-07T04:19:44;14.18;;;8.07;;
68214;SDS011;55036;52.138;5.236;2023-12-07T04:22:11;11.57;;;7.50;;
68214;SDS011;55036;52.138;5.236;2023-12-07T04:24:38;13.63;;;7.75;;
68214;SDS011;55036;52.138;5.236;2023-12-07T04:27:05;13.27;;;7.78;;
68214;SDS011;55036;52.138;5.236;2023-12-07T04:29:31;11.50;;;7.38;;
68214;SDS011;55036;52.138;5.236;2023-12-07T04:31:58;12.93;;;7.38;;
68214;SDS011;55036;52.138;5.236;2023-12-07T04:34:25;13.82;;;7.72;;
68214;SDS011;55036;52.138;5.236;2023-12-07T04:36:52;12.50;;;7.60;;
68214;SDS011;55036;52.138;5.236;2023-12-07T04:39:19;9.80;;;7.05;;
68214;SDS011;55036;52.138;5.236;2023-12-07T04:41:46;13.77;;;7.88;;
68214;SDS011;55036;52.138;5.236;2023-12-07T04:44:12;12.65;;;8.40;;
68214;SDS011;55036;52.138;5.236;2023-12-07T04:46:39;12.73;;;8.15;;
68214;SDS011;55036;52.138;5.236;2023-12-07T04:49:06;16.17;;;8.43;;
68214;SDS011;55036;52.138;5.236;2023-12-07T04:51:33;13.02;;;7.97;;
68214;SDS011;55036;52.138;5.236;2023-12-07T04:54:00;13.63;;;7.57;;
68214;SDS011;55036;52.138;5.236;2023-12-07T04:56:41;12.95;;;8.35;;
68214;SDS011;55036;52.138;5.236;2023-12-07T04:59:09;13.38;;;8.02;;
68214;SDS011;55036;52.138;5.236;2023-12-07T05:01:36;12.68;;;8.13;;
68214;SDS011;55036;52.138;5.236;2023-12-07T05:04:03;12.95;;;8.45;;
68214;SDS011;55036;52.138;5.236;2023-12-07T05:06:31;12.32;;;8.13;;
68214;SDS011;55036;52.138;5.236;2023-12-07T05:08:58;13.82;;;8.60;;
68214;SDS011;55036;52.138;5.236;2023-12-07T05:11:25;12.70;;;8.05;;
68214;SDS011;55036;52.138;5.236;2023-12-07T05:13:52;13.70;;;8.68;;
68214;SDS011;55036;52.138;5.236;2023-12-07T05:16:19;12.57;;;7.78;;
68214;SDS011;55036;52.138;5.236;2023-12-07T05:18:46;16.85;;;8.18;;
68214;SDS011;55036;52.138;5.236;2023-12-07T05:21:13;11.68;;;8.00;;
68214;SDS011;55036;52.138;5.236;2023-12-07T05:23:40;16.33;;;9.38;;
68214;SDS011;55036;52.138;5.236;2023-12-07T05:26:07;12.18;;;8.07;;
68214;SDS011;55036;52.138;5.236;2023-12-07T05:28:35;28.85;;;10.07;;
68214;SDS011;55036;52.138;5.236;2023-12-07T05:31:02;17.75;;;8.98;;
68214;SDS011;55036;52.138;5.236;2023-12-07T05:33:30;26.05;;;10.80;;
68214;SDS011;55036;52.138;5.236;2023-12-07T05:35:56;30.20;;;11.18;;
68214;SDS011;55036;52.138;5.236;2023-12-07T05:38:24;38.45;;;11.32;;
68214;SDS011;55036;52.138;5.236;2023-12-07T05:40:50;26.45;;;11.07;;
68214;SDS011;55036;52.138;5.236;2023-12-07T05:43:17;29.08;;;10.93;;
68214;SDS011;55036;52.138;5.236;2023-12-07T05:45:45;50.10;;;11.25;;
68214;SDS011;55036;52.138;5.236;2023-12-07T05:48:12;36.13;;;11.60;;
68214;SDS011;55036;52.138;5.236;2023-12-07T05:50:40;66.63;;;11.70;;
68214;SDS011;55036;52.138;5.236;2023-12-07T05:53:07;44.20;;;11.20;;
68214;SDS011;55036;52.138;5.236;2023-12-07T05:55:35;32.35;;;11.25;;
68214;SDS011;55036;52.138;5.236;2023-12-07T05:58:03;31.63;;;11.77;;
68214;SDS011;55036;52.138;5.236;2023-12-07T06:00:30;46.42;;;12.13;;
68214;SDS011;55036;52.138;5.236;2023-12-07T06:02:58;25.75;;;10.25;;
68214;SDS011;55036;52.138;5.236;2023-12-07T06:05:25;34.88;;;11.05;;
68214;SDS011;55036;52.138;5.236;2023-12-07T06:07:52;36.05;;;11.27;;
68214;SDS011;55036;52.138;5.236;2023-12-07T06:10:20;25.45;;;11.88;;
68214;SDS011;55036;52.138;5.236;2023-12-07T06:12:47;44.03;;;11.88;;
68214;SDS011;55036;52.138;5.236;2023-12-07T06:15:13;23.02;;;11.65;;
68214;SDS011;55036;52.138;5.236;2023-12-07T06:17:40;45.97;;;12.98;;
68214;SDS011;55036;52.138;5.236;2023-12-07T06:20:07;26.77;;;10.63;;
68214;SDS011;55036;52.138;5.236;2023-12-07T06:22:34;29.75;;;11.15;;
68214;SDS011;55036;52.138;5.236;2023-12-07T06:25:01;39.47;;;12.40;;
68214;SDS011;55036;52.138;5.236;2023-12-07T06:27:27;27.63;;;13.20;;
68214;SDS011;55036;52.138;5.236;2023-12-07T06:29:54;41.45;;;12.85;;
68214;SDS011;55036;52.138;5.236;2023-12-07T06:32:21;41.10;;;13.45;;
68214;SDS011;55036;52.138;5.236;2023-12-07T06:34:48;38.58;;;13.70;;
68214;SDS011;55036;52.138;5.236;2023-12-07T06:37:15;25.88;;;12.32;;
68214;SDS011;55036;52.138;5.236;2023-12-07T06:39:43;41.40;;;12.50;;
68214;SDS011;55036;52.138;5.236;2023-12-07T06:42:10;34.92;;;11.48;;
68214;SDS011;55036;52.138;5.236;2023-12-07T06:44:37;49.78;;;13.20;;
68214;SDS011;55036;52.138;5.236;2023-12-07T06:47:04;37.55;;;12.88;;
68214;SDS011;55036;52.138;5.236;2023-12-07T06:49:30;26.95;;;13.43;;
68214;SDS011;55036;52.138;5.236;2023-12-07T06:52:14;27.90;;;12.77;;
68214;SDS011;55036;52.138;5.236;2023-12-07T06:54:41;35.78;;;11.90;;
68214;SDS011;55036;52.138;5.236;2023-12-07T06:57:07;22.60;;;11.60;;
68214;SDS011;55036;52.138;5.236;2023-12-07T06:59:34;33.63;;;13.18;;
68214;SDS011;55036;52.138;5.236;2023-12-07T07:02:01;33.85;;;14.15;;
68214;SDS011;55036;52.138;5.236;2023-12-07T07:04:28;40.97;;;13.55;;
68214;SDS011;55036;52.138;5.236;2023-12-07T07:06:56;33.30;;;13.48;;
68214;SDS011;55036;52.138;5.236;2023-12-07T07:09:23;27.23;;;12.52;;
68214;SDS011;55036;52.138;5.236;2023-12-07T07:11:50;37.17;;;13.48;;
68214;SDS011;55036;52.138;5.236;2023-12-07T07:14:17;56.97;;;16.17;;
68214;SDS011;55036;52.138;5.236;2023-12-07T07:16:44;35.85;;;13.98;;
68214;SDS011;55036;52.138;5.236;2023-12-07T07:19:11;41.20;;;15.23;;
68214;SDS011;55036;52.138;5.236;2023-12-07T07:21:38;37.97;;;12.90;;
68214;SDS011;55036;52.138;5.236;2023-12-07T07:24:04;37.40;;;14.25;;
68214;SDS011;55036;52.138;5.236;2023-12-07T07:26:34;31.65;;;13.60;;
68214;SDS011;55036;52.138;5.236;2023-12-07T07:29:01;45.65;;;13.38;;
68214;SDS011;55036;52.138;5.236;2023-12-07T07:31:30;34.30;;;12.98;;
68214;SDS011;55036;52.138;5.236;2023-12-07T07:33:56;41.10;;;12.52;;
68214;SDS011;55036;52.138;5.236;2023-12-07T07:36:27;28.73;;;12.98;;
68214;SDS011;55036;52.138;5.236;2023-12-07T07:38:54;32.85;;;13.55;;
68214;SDS011;55036;52.138;5.236;2023-12-07T07:41:21;27.80;;;13.05;;
68214;SDS011;55036;52.138;5.236;2023-12-07T07:43:47;21.88;;;12.63;;
68214;SDS011;55036;52.138;5.236;2023-12-07T07:46:14;26.63;;;12.77;;
68214;SDS011;55036;52.138;5.236;2023-12-07T07:48:41;44.90;;;13.85;;
68214;SDS011;55036;52.138;5.236;2023-12-07T07:51:08;23.55;;;13.52;;
68214;SDS011;55036;52.138;5.236;2023-12-07T07:53:35;31.98;;;13.05;;
68214;SDS011;55036;52.138;5.236;2023-12-07T07:56:02;41.55;;;13.90;;
68214;SDS011;55036;52.138;5.236;2023-12-07T07:58:28;34.72;;;12.90;;
68214;SDS011;55036;52.138;5.236;2023-12-07T08:00:55;21.40;;;12.88;;
68214;SDS011;55036;52.138;5.236;2023-12-07T08:03:22;44.38;;;13.15;;
68214;SDS011;55036;52.138;5.236;2023-12-07T08:05:50;42.75;;;15.32;;
68214;SDS011;55036;52.138;5.236;2023-12-07T08:08:16;53.00;;;14.23;;
68214;SDS011;55036;52.138;5.236;2023-12-07T08:10:43;24.38;;;13.13;;
68214;SDS011;55036;52.138;5.236;2023-12-07T08:13:21;29.33;;;13.40;;
68214;SDS011;55036;52.138;5.236;2023-12-07T08:15:48;27.13;;;12.70;;
68214;SDS011;55036;52.138;5.236;2023-12-07T08:18:15;29.17;;;12.82;;
68214;SDS011;55036;52.138;5.236;2023-12-07T08:20:42;23.70;;;12.15;;
68214;SDS011;55036;52.138;5.236;2023-12-07T08:23:09;29.38;;;13.90;;
68214;SDS011;55036;52.138;5.236;2023-12-07T08:25:38;31.65;;;12.60;;
68214;SDS011;55036;52.138;5.236;2023-12-07T08:28:05;25.30;;;13.40;;
68214;SDS011;55036;52.138;5.236;2023-12-07T08:30:35;25.80;;;12.00;;
68214;SDS011;55036;52.138;5.236;2023-12-07T08:33:02;35.42;;;12.55;;
68214;SDS011;55036;52.138;5.236;2023-12-07T08:35:29;31.00;;;12.30;;
68214;SDS011;55036;52.138;5.236;2023-12-07T08:37:56;31.92;;;14.02;;
68214;SDS011;55036;52.138;5.236;2023-12-07T08:40:23;26.90;;;12.32;;
68214;SDS011;55036;52.138;5.236;2023-12-07T08:42:49;28.35;;;12.60;;
68214;SDS011;55036;52.138;5.236;2023-12-07T08:45:18;41.25;;;12.30;;
68214;SDS011;55036;52.138;5.236;2023-12-07T08:47:45;24.05;;;12.90;;
68214;SDS011;55036;52.138;5.236;2023-12-07T08:50:12;51.60;;;12.30;;
68214;SDS011;55036;52.138;5.236;2023-12-07T08:52:38;35.60;;;12.43;;
68214;SDS011;55036;52.138;5.236;2023-12-07T08:55:15;35.72;;;11.43;;
68214;SDS011;55036;52.138;5.236;2023-12-07T08:57:43;20.85;;;10.00;;
68214;SDS011;55036;52.138;5.236;2023-12-07T09:00:10;25.95;;;11.98;;
68214;SDS011;55036;52.138;5.236;2023-12-07T09:02:39;20.48;;;11.15;;
68214;SDS011;55036;52.138;5.236;2023-12-07T09:05:13;30.52;;;12.57;;
68214;SDS011;55036;52.138;5.236;2023-12-07T09:07:40;27.70;;;11.02;;
68214;SDS011;55036;52.138;5.236;2023-12-07T09:10:07;33.53;;;10.88;;
68214;SDS011;55036;52.138;5.236;2023-12-07T09:12:35;20.70;;;11.77;;
68214;SDS011;55036;52.138;5.236;2023-12-07T09:15:05;40.97;;;9.07;;
68214;SDS011;55036;52.138;5.236;2023-12-07T09:17:37;19.05;;;9.43;;
68214;SDS011;55036;52.138;5.236;2023-12-07T09:20:08;26.40;;;9.20;;
68214;SDS011;55036;52.138;5.236;2023-12-07T09:22:42;20.17;;;9.23;;
68214;SDS011;55036;52.138;5.236;2023-12-07T09:25:13;19.55;;;10.68;;
68214;SDS011;55036;52.138;5.236;2023-12-07T09:27:41;27.33;;;10.57;;
68214;SDS011;55036;52.138;5.236;2023-12-07T09:30:08;18.50;;;9.13;;
68214;SDS011;55036;52.138;5.236;2023-12-07T09:32:40;17.35;;;8.80;;
68214;SDS011;55036;52.138;5.236;2023-12-07T09:35:10;18.52;;;9.13;;
68214;SDS011;55036;52.138;5.236;2023-12-07T09:37:55;17.52;;;9.27;;
68214;SDS011;55036;52.138;5.236;2023-12-07T09:40:22;18.65;;;9.55;;
68214;SDS011;55036;52.138;5.236;2023-12-07T09:42:51;20.38;;;9.35;;
68214;SDS011;55036;52.138;5.236;2023-12-07T09:45:18;15.15;;;8.38;;
68214;SDS011;55036;52.138;5.236;2023-12-07T09:47:47;21.42;;;10.10;;
68214;SDS011;55036;52.138;5.236;2023-12-07T09:50:15;21.52;;;9.20;;
68214;SDS011;55036;52.138;5.236;2023-12-07T09:52:52;17.23;;;8.55;;
68214;SDS011;55036;52.138;5.236;2023-12-07T09:55:33;18.23;;;7.55;;
68214;SDS011;55036;52.138;5.236;2023-12-07T09:58:05;13.60;;;7.85;;
68214;SDS011;55036;52.138;5.236;2023-12-07T10:00:34;21.15;;;7.32;;
68214;SDS011;55036;52.138;5.236;2023-12-07T10:03:02;35.47;;;8.48;;
68214;SDS011;55036;52.138;5.236;2023-12-07T10:05:31;25.58;;;8.32;;
68214;SDS011;55036;52.138;5.236;2023-12-07T10:07:58;23.95;;;7.82;;
68214;SDS011;55036;52.138;5.236;2023-12-07T10:10:24;14.27;;;7.07;;
68214;SDS011;55036;52.138;5.236;2023-12-07T10:12:53;16.17;;;7.22;;
68214;SDS011;55036;52.138;5.236;2023-12-07T10:15:22;15.70;;;7.32;;
68214;SDS011;55036;52.138;5.236;2023-12-07T10:17:57;24.45;;;7.13;;
68214;SDS011;55036;52.138;5.236;2023-12-07T10:20:27;20.15;;;6.40;;
68214;SDS011;55036;52.138;5.236;2023-12-07T10:25:35;16.77;;;6.50;;
68214;SDS011;55036;52.138;5.236;2023-12-07T10:28:07;17.00;;;6.68;;
68214;SDS011;55036;52.138;5.236;2023-12-07T10:30:37;16.02;;;7.15;;
68214;SDS011;55036;52.138;5.236;2023-12-07T10:33:09;15.93;;;7.50;;
68214;SDS011;55036;52.138;5.236;2023-12-07T10:35:39;23.75;;;6.47;;
68214;SDS011;55036;52.138;5.236;2023-12-07T10:38:07;21.65;;;6.65;;
68214;SDS011;55036;52.138;5.236;2023-12-07T10:40:34;27.40;;;7.28;;
68214;SDS011;55036;52.138;5.236;2023-12-07T10:43:03;17.17;;;6.40;;
68214;SDS011;55036;52.138;5.236;2023-12-07T10:45:32;14.57;;;6.22;;
68214;SDS011;55036;52.138;5.236;2023-12-07T10:48:05;22.67;;;6.55;;
68214;SDS011;55036;52.138;5.236;2023-12-07T10:50:42;16.20;;;7.38;;
68214;SDS011;55036;52.138;5.236;2023-12-07T10:53:26;9.82;;;5.47;;
68214;SDS011;55036;52.138;5.236;2023-12-07T10:55:56;12.63;;;6.15;;
68214;SDS011;55036;52.138;5.236;2023-12-07T10:58:31;16.80;;;6.75;;
68214;SDS011;55036;52.138;5.236;2023-12-07T11:01:02;14.93;;;6.57;;
68214;SDS011;55036;52.138;5.236;2023-12-07T11:03:29;17.92;;;6.15;;
68214;SDS011;55036;52.138;5.236;2023-12-07T11:05:57;13.05;;;6.50;;
68214;SDS011;55036;52.138;5.236;2023-12-07T11:08:36;13.02;;;7.05;;
68214;SDS011;55036;52.138;5.236;2023-12-07T11:11:20;10.57;;;5.50;;
68214;SDS011;55036;52.138;5.236;2023-12-07T11:14:27;12.23;;;6.72;;
68214;SDS011;55036;52.138;5.236;2023-12-07T11:16:55;14.10;;;7.47;;
68214;SDS011;55036;52.138;5.236;2023-12-07T11:22:00;24.45;;;7.53;;
68214;SDS011;55036;52.138;5.236;2023-12-07T11:24:28;17.73;;;7.05;;
68214;SDS011;55036;52.138;5.236;2023-12-07T11:26:55;24.02;;;8.88;;
68214;SDS011;55036;52.138;5.236;2023-12-07T11:29:25;16.88;;;7.90;;
68214;SDS011;55036;52.138;5.236;2023-12-07T11:31:55;22.80;;;9.00;;
68214;SDS011;55036;52.138;5.236;2023-12-07T11:34:33;20.83;;;8.30;;
68214;SDS011;55036;52.138;5.236;2023-12-07T11:37:05;21.23;;;8.95;;
68214;SDS011;55036;52.138;5.236;2023-12-07T11:39:36;19.35;;;9.18;;
68214;SDS011;55036;52.138;5.236;2023-12-07T11:42:12;21.67;;;8.90;;
68214;SDS011;55036;52.138;5.236;2023-12-07T11:44:42;19.15;;;8.93;;
68214;SDS011;55036;52.138;5.236;2023-12-07T11:47:16;20.88;;;9.40;;
68214;SDS011;55036;52.138;5.236;2023-12-07T11:49:44;18.70;;;8.68;;
68214;SDS011;55036;52.138;5.236;2023-12-07T11:52:15;21.92;;;9.07;;
68214;SDS011;55036;52.138;5.236;2023-12-07T11:54:44;20.25;;;8.00;;
68214;SDS011;55036;52.138;5.236;2023-12-07T11:57:13;17.92;;;8.35;;
68214;SDS011;55036;52.138;5.236;2023-12-07T11:59:43;22.25;;;8.73;;
68214;SDS011;55036;52.138;5.236;2023-12-07T12:02:11;23.50;;;8.43;;
68214;SDS011;55036;52.138;5.236;2023-12-07T12:04:39;24.23;;;8.30;;
68214;SDS011;55036;52.138;5.236;2023-12-07T12:07:07;18.52;;;8.93;;
68214;SDS011;55036;52.138;5.236;2023-12-07T12:09:34;21.85;;;9.43;;
68214;SDS011;55036;52.138;5.236;2023-12-07T12:12:01;32.15;;;9.00;;
68214;SDS011;55036;52.138;5.236;2023-12-07T12:14:28;22.92;;;9.88;;
68214;SDS011;55036;52.138;5.236;2023-12-07T12:16:55;22.50;;;9.05;;
68214;SDS011;55036;52.138;5.236;2023-12-07T12:19:23;32.50;;;9.45;;
68214;SDS011;55036;52.138;5.236;2023-12-07T12:22:02;21.63;;;9.82;;
68214;SDS011;55036;52.138;5.236;2023-12-07T12:24:33;18.95;;;9.63;;
68214;SDS011;55036;52.138;5.236;2023-12-07T12:27:01;24.88;;;10.35;;
68214;SDS011;55036;52.138;5.236;2023-12-07T12:29:29;25.10;;;10.43;;
68214;SDS011;55036;52.138;5.236;2023-12-07T12:32:01;26.17;;;10.20;;
68214;SDS011;55036;52.138;5.236;2023-12-07T12:34:32;30.27;;;11.15;;
68214;SDS011;55036;52.138;5.236;2023-12-07T12:37:01;25.70;;;10.13;;
68214;SDS011;55036;52.138;5.236;2023-12-07T12:39:29;23.98;;;10.75;;
68214;SDS011;55036;52.138;5.236;2023-12-07T12:41:59;30.17;;;10.75;;
68214;SDS011;55036;52.138;5.236;2023-12-07T12:44:27;33.95;;;11.60;;
68214;SDS011;55036;52.138;5.236;2023-12-07T12:47:04;27.30;;;11.52;;
68214;SDS011;55036;52.138;5.236;2023-12-07T12:49:38;23.02;;;9.75;;
68214;SDS011;55036;52.138;5.236;2023-12-07T12:52:09;24.00;;;11.32;;
68214;SDS011;55036;52.138;5.236;2023-12-07T12:54:37;23.35;;;11.20;;
68214;SDS011;55036;52.138;5.236;2023-12-07T12:57:06;26.00;;;10.98;;
68214;SDS011;55036;52.138;5.236;2023-12-07T12:59:34;27.45;;;10.98;;
68214;SDS011;55036;52.138;5.236;2023-12-07T13:02:02;23.83;;;11.07;;
68214;SDS011;55036;52.138;5.236;2023-12-07T13:04:32;24.92;;;10.48;;
68214;SDS011;55036;52.138;5.236;2023-12-07T13:07:03;36.25;;;12.13;;
68214;SDS011;55036;52.138;5.236;2023-12-07T13:09:30;28.92;;;12.82;;
68214;SDS011;55036;52.138;5.236;2023-12-07T13:11:57;24.13;;;10.95;;
68214;SDS011;55036;52.138;5.236;2023-12-07T13:14:29;25.98;;;11.02;;
68214;SDS011;55036;52.138;5.236;2023-12-07T13:16:57;28.70;;;13.18;;
68214;SDS011;55036;52.138;5.236;2023-12-07T13:19:24;26.05;;;11.88;;
68214;SDS011;55036;52.138;5.236;2023-12-07T13:21:51;23.17;;;12.45;;
68214;SDS011;55036;52.138;5.236;2023-12-07T13:24:18;25.13;;;11.95;;
68214;SDS011;55036;52.138;5.236;2023-12-07T13:26:45;24.23;;;11.73;;
68214;SDS011;55036;52.138;5.236;2023-12-07T13:29:13;30.13;;;13.38;;
68214;SDS011;55036;52.138;5.236;2023-12-07T13:31:54;27.92;;;12.85;;
68214;SDS011;55036;52.138;5.236;2023-12-07T13:34:20;27.38;;;13.18;;
68214;SDS011;55036;52.138;5.236;2023-12-07T13:36:49;15.73;;;7.57;;
68214;SDS011;55036;52.138;5.236;2023-12-07T13:39:16;28.10;;;13.43;;
68214;SDS011;55036;52.138;5.236;2023-12-07T13:41:56;28.08;;;13.02;;
68214;SDS011;55036;52.138;5.236;2023-12-07T13:44:23;30.70;;;13.15;;
68214;SDS011;55036;52.138;5.236;2023-12-07T13:46:54;28.55;;;13.80;;
68214;SDS011;55036;52.138;5.236;2023-12-07T13:49:22;25.25;;;12.40;;
68214;SDS011;55036;52.138;5.236;2023-12-07T13:51:59;25.65;;;13.60;;
68214;SDS011;55036;52.138;5.236;2023-12-07T13:54:32;23.25;;;11.02;;
68214;SDS011;55036;52.138;5.236;2023-12-07T13:57:18;26.17;;;12.43;;
68214;SDS011;55036;52.138;5.236;2023-12-07T13:59:46;25.13;;;13.93;;
68214;SDS011;55036;52.138;5.236;2023-12-07T14:02:13;26.15;;;12.50;;
68214;SDS011;55036;52.138;5.236;2023-12-07T14:04:41;30.15;;;13.18;;
68214;SDS011;55036;52.138;5.236;2023-12-07T14:07:09;26.90;;;13.30;;
68214;SDS011;55036;52.138;5.236;2023-12-07T14:09:42;30.20;;;14.05;;
68214;SDS011;55036;52.138;5.236;2023-12-07T14:12:23;29.65;;;13.48;;
68214;SDS011;55036;52.138;5.236;2023-12-07T14:14:50;16.63;;;8.18;;
68214;SDS011;55036;52.138;5.236;2023-12-07T14:17:16;28.63;;;13.75;;
68214;SDS011;55036;52.138;5.236;2023-12-07T14:19:48;29.30;;;14.65;;
68214;SDS011;55036;52.138;5.236;2023-12-07T14:22:16;16.40;;;8.48;;
68214;SDS011;55036;52.138;5.236;2023-12-07T14:24:43;28.83;;;14.02;;
68214;SDS011;55036;52.138;5.236;2023-12-07T14:27:10;31.05;;;15.13;;
68214;SDS011;55036;52.138;5.236;2023-12-07T14:29:37;31.13;;;15.50;;
68214;SDS011;55036;52.138;5.236;2023-12-07T14:32:04;32.10;;;14.50;;
68214;SDS011;55036;52.138;5.236;2023-12-07T14:34:31;32.95;;;16.00;;
68214;SDS011;55036;52.138;5.236;2023-12-07T14:37:02;36.33;;;17.38;;
68214;SDS011;55036;52.138;5.236;2023-12-07T14:39:31;30.08;;;15.02;;
68214;SDS011;55036;52.138;5.236;2023-12-07T14:41:58;31.33;;;15.50;;
68214;SDS011;55036;52.138;5.236;2023-12-07T14:44:25;30.98;;;15.60;;
68214;SDS011;55036;52.138;5.236;2023-12-07T14:46:55;38.30;;;19.83;;
68214;SDS011;55036;52.138;5.236;2023-12-07T14:49:23;38.72;;;17.90;;
68214;SDS011;55036;52.138;5.236;2023-12-07T14:51:50;33.67;;;17.05;;
68214;SDS011;55036;52.138;5.236;2023-12-07T14:54:17;43.03;;;18.83;;
68214;SDS011;55036;52.138;5.236;2023-12-07T14:56:52;35.38;;;17.52;;
68214;SDS011;55036;52.138;5.236;2023-12-07T14:59:19;37.85;;;17.73;;
68214;SDS011;55036;52.138;5.236;2023-12-07T15:01:48;37.70;;;17.30;;
68214;SDS011;55036;52.138;5.236;2023-12-07T15:04:16;34.97;;;16.55;;
68214;SDS011;55036;52.138;5.236;2023-12-07T15:06:58;41.50;;;18.45;;
68214;SDS011;55036;52.138;5.236;2023-12-07T15:09:26;33.10;;;16.83;;
68214;SDS011;55036;52.138;5.236;2023-12-07T15:11:52;36.75;;;16.98;;
68214;SDS011;55036;52.138;5.236;2023-12-07T15:14:21;42.05;;;18.38;;
68214;SDS011;55036;52.138;5.236;2023-12-07T15:17:02;34.58;;;16.58;;
68214;SDS011;55036;52.138;5.236;2023-12-07T15:19:31;16.88;;;11.45;;
68214;SDS011;55036;52.138;5.236;2023-12-07T15:21:59;34.10;;;17.00;;